Terminal Aerodrome Forecast
Issued by NWS

Home | Current Version | Previous Version | Text Only | Print | Product List | Glossary On
Versions: 1 2 3 4 5 6 7 8 9 10 11 12 13 14 15 16 17 18 19 20
000
FTUS43 KJKL 191100
TAFSME
TAF
KSME 191123Z 1912/2012 00000KT 5SM BR OVC006
     FM191300 00000KT 5SM BR BKN010
     FM191400 27005KT P6SM BKN025
     FM191700 24005KT P6SM VCTS BKN050CB
     FM200100 00000KT 5SM BR SCT050
     FM200800 00000KT 1/2SM FG VV002=

USA.gov is the U.S. government's official web portal to all federal, state and local government web resources and services.